KLBL/LBL METAR and TAF weather

Enter ICAO airport designator
Station Type Date Time Source
KLBL METAR 2019/08/25 19:56 UTC NOAA

KLBL 251956Z AUTO 13009KT 10SM CLR 31/21 A2987 RMK AO2 SLP078 T03060211


Station Type Date Time Source
KLBL Decoded METAR 2019/08/25 19:56 UTC NOAA

Station name not available
Aug 25, 2019 - 03:56 PM EDT / 2019.08.25 1956 UTC
Wind: from the SE (130 degrees) at 10 MPH (9 KT):0
Visibility: 10 mile(s):0
Sky conditions: clear
Temperature: 87.1 F (30.6 C)
Dew Point: 70.0 F (21.1 C)
Relative Humidity: 56%
Pressure (altimeter): 29.87 in. Hg (1011 hPa)
ob: KLBL 251956Z AUTO 13009KT 10SM CLR 31/21 A2987 RMK AO2 SLP078 T03060211
cycle: 20

Station Type Date Time Source
KLBL TAF 2019/08/25 18:21 UTC NOAA

TAF KLBL 251720Z 2518/2618 16012G18KT P6SM BKN030
FM251930 17013KT P6SM SCT035
FM260800 18006KT P6SM SCT030
FM261300 30011KT P6SM FEW080

Example: see airport list